createdAt,value
2022-08-25T00:06:46.675Z,18.44
2022-08-25T02:26:45.719Z,18.45
2022-08-25T04:26:46.331Z,18.42
2022-08-25T04:46:46.311Z,18.42
2022-08-25T05:06:46.282Z,18.41
2022-08-25T06:06:45.697Z,18.38
2022-08-25T06:26:46.178Z,18.38
2022-08-25T06:46:46.109Z,18.37
2022-08-25T07:06:46.123Z,18.36
2022-08-25T07:26:46.085Z,18.36
2022-08-25T08:06:46.036Z,18.36
2022-08-25T08:26:57.510Z,18.35
2022-08-25T08:46:46.023Z,18.35
2022-08-25T11:26:45.749Z,18.28
2022-08-25T12:06:45.719Z,18.28
2022-08-25T13:06:45.737Z,18.3
2022-08-25T13:26:47.348Z,18.31
2022-08-25T13:46:45.661Z,18.32
2022-08-25T14:06:45.658Z,18.33
2022-08-25T14:26:54.189Z,18.35
2022-08-25T14:46:45.638Z,18.36
2022-08-25T15:06:45.642Z,18.36
2022-08-25T15:26:45.153Z,18.37
2022-08-25T15:46:47.238Z,18.39
2022-08-25T16:06:45.595Z,18.42
2022-08-25T16:26:48.366Z,18.43
2022-08-25T16:46:45.563Z,18.45
2022-08-25T17:06:49.678Z,18.46
2022-08-25T17:26:44.363Z,18.46
2022-08-25T17:46:47.234Z,18.47
2022-08-25T18:06:45.429Z,18.49
2022-08-25T18:26:45.267Z,18.52
2022-08-25T18:46:45.614Z,18.54
2022-08-25T19:06:45.332Z,18.55
2022-08-25T19:26:45.168Z,18.56
2022-08-25T19:46:45.268Z,18.56
2022-08-25T20:06:48.109Z,18.57
2022-08-25T20:26:45.215Z,18.58
2022-08-25T20:46:44.414Z,18.59
2022-08-25T21:06:45.138Z,18.6
2022-08-25T21:26:47.631Z,18.62
2022-08-25T21:46:45.545Z,18.63
2022-08-25T22:06:44.437Z,18.64
2022-08-25T22:26:46.620Z,18.65
2022-08-25T22:46:45.252Z,18.65
2022-08-25T23:06:44.969Z,18.65
2022-08-25T23:26:45.268Z,18.66
2022-08-25T23:46:44.148Z,18.66
